sensor_id;sensor_type;location;lat;lon;timestamp;pressure;altitude;pressure_sealevel;temperature;humidity
27643;BME280;15053;48.618;10.024;2023-03-13T00:01:31;93840.50;;;7.48;82.38
27643;BME280;15053;48.618;10.024;2023-03-13T00:03:58;93843.94;;;7.43;83.52
27643;BME280;15053;48.618;10.024;2023-03-13T00:06:26;93843.94;;;7.43;83.02
27643;BME280;15053;48.618;10.024;2023-03-13T00:08:54;93837.75;;;7.39;83.40
27643;BME280;15053;48.618;10.024;2023-03-13T00:11:21;93851.75;;;7.38;84.15
27643;BME280;15053;48.618;10.024;2023-03-13T00:13:47;93847.63;;;7.37;84.83
27643;BME280;15053;48.618;10.024;2023-03-13T00:16:15;93848.66;;;7.36;85.06
27643;BME280;15053;48.618;10.024;2023-03-13T00:18:46;93841.72;;;7.32;84.37
27643;BME280;15053;48.618;10.024;2023-03-13T00:21:13;93842.81;;;7.26;85.35
27643;BME280;15053;48.618;10.024;2023-03-13T00:23:40;93833.00;;;7.23;85.70
27643;BME280;15053;48.618;10.024;2023-03-13T00:26:12;93838.69;;;7.25;85.61
27643;BME280;15053;48.618;10.024;2023-03-13T00:28:40;93837.63;;;7.26;85.70
27643;BME280;15053;48.618;10.024;2023-03-13T00:31:09;93835.81;;;7.26;85.94
27643;BME280;15053;48.618;10.024;2023-03-13T00:33:39;93837.16;;;7.24;85.87
27643;BME280;15053;48.618;10.024;2023-03-13T00:36:17;93842.63;;;7.22;86.19
27643;BME280;15053;48.618;10.024;2023-03-13T00:38:44;93843.38;;;7.23;87.48
27643;BME280;15053;48.618;10.024;2023-03-13T00:41:14;93844.91;;;7.24;87.52
27643;BME280;15053;48.618;10.024;2023-03-13T00:43:42;93835.59;;;7.23;87.10
27643;BME280;15053;48.618;10.024;2023-03-13T00:46:10;93834.56;;;7.24;87.81
27643;BME280;15053;48.618;10.024;2023-03-13T00:48:37;93838.97;;;7.23;87.88
27643;BME280;15053;48.618;10.024;2023-03-13T00:51:04;93843.38;;;7.23;88.56
27643;BME280;15053;48.618;10.024;2023-03-13T00:53:32;93841.84;;;7.22;88.51
27643;BME280;15053;48.618;10.024;2023-03-13T00:56:01;93836.66;;;7.22;89.19
27643;BME280;15053;48.618;10.024;2023-03-13T00:58:29;93826.31;;;7.22;89.20
27643;BME280;15053;48.618;10.024;2023-03-13T01:00:56;93818.78;;;7.20;89.44
27643;BME280;15053;48.618;10.024;2023-03-13T01:03:23;93797.91;;;7.11;88.96
27643;BME280;15053;48.618;10.024;2023-03-13T01:06:01;93806.91;;;7.19;89.90
27643;BME280;15053;48.618;10.024;2023-03-13T01:08:29;93799.69;;;7.16;89.17
27643;BME280;15053;48.618;10.024;2023-03-13T01:11:04;93803.81;;;7.17;89.96
27643;BME280;15053;48.618;10.024;2023-03-13T01:13:31;93813.13;;;7.18;89.60
27643;BME280;15053;48.618;10.024;2023-03-13T01:16:09;93808.72;;;7.19;88.80
27643;BME280;15053;48.618;10.024;2023-03-13T01:18:38;93803.53;;;7.19;89.07
27643;BME280;15053;48.618;10.024;2023-03-13T01:21:06;93809.00;;;7.17;89.74
27643;BME280;15053;48.618;10.024;2023-03-13T01:23:32;93806.69;;;7.16;88.84
27643;BME280;15053;48.618;10.024;2023-03-13T01:25:59;93798.13;;;7.15;89.53
27643;BME280;15053;48.618;10.024;2023-03-13T01:28:26;93795.56;;;7.15;89.18
27643;BME280;15053;48.618;10.024;2023-03-13T01:30:53;93789.59;;;7.14;89.68
27643;BME280;15053;48.618;10.024;2023-03-13T01:33:19;93794.56;;;7.11;89.54
27643;BME280;15053;48.618;10.024;2023-03-13T01:35:46;93789.41;;;7.11;89.54
27643;BME280;15053;48.618;10.024;2023-03-13T01:38:12;93781.63;;;7.11;89.69
27643;BME280;15053;48.618;10.024;2023-03-13T01:40:41;93784.97;;;7.11;90.21
27643;BME280;15053;48.618;10.024;2023-03-13T01:43:16;93766.84;;;7.11;89.33
27643;BME280;15053;48.618;10.024;2023-03-13T01:45:56;93768.41;;;7.12;89.71
27643;BME280;15053;48.618;10.024;2023-03-13T01:51:19;93763.44;;;7.16;89.52
27643;BME280;15053;48.618;10.024;2023-03-13T01:53:52;93764.72;;;7.19;89.47
27643;BME280;15053;48.618;10.024;2023-03-13T01:56:24;93766.25;;;7.20;89.03
27643;BME280;15053;48.618;10.024;2023-03-13T01:58:55;93762.59;;;7.21;89.43
27643;BME280;15053;48.618;10.024;2023-03-13T02:01:23;93753.03;;;7.21;89.41
27643;BME280;15053;48.618;10.024;2023-03-13T02:03:50;93758.97;;;7.22;89.32
27643;BME280;15053;48.618;10.024;2023-03-13T02:06:17;93753.03;;;7.21;88.73
27643;BME280;15053;48.618;10.024;2023-03-13T02:08:55;93750.66;;;7.25;89.31
27643;BME280;15053;48.618;10.024;2023-03-13T02:11:33;93747.56;;;7.23;88.86
27643;BME280;15053;48.618;10.024;2023-03-13T02:14:02;93754.28;;;7.24;88.80
27643;BME280;15053;48.618;10.024;2023-03-13T02:16:32;93750.16;;;7.23;88.47
27643;BME280;15053;48.618;10.024;2023-03-13T02:19:01;93744.69;;;7.24;89.10
27643;BME280;15053;48.618;10.024;2023-03-13T02:21:41;93732.53;;;7.25;88.75
27643;BME280;15053;48.618;10.024;2023-03-13T02:24:19;93736.16;;;7.24;89.21
27643;BME280;15053;48.618;10.024;2023-03-13T02:26:50;93730.19;;;7.23;89.01
27643;BME280;15053;48.618;10.024;2023-03-13T02:29:17;93741.88;;;7.21;88.69
27643;BME280;15053;48.618;10.024;2023-03-13T02:31:45;93729.72;;;7.21;88.56
27643;BME280;15053;48.618;10.024;2023-03-13T02:34:16;93732.59;;;7.20;89.06
27643;BME280;15053;48.618;10.024;2023-03-13T02:36:44;93725.56;;;7.20;88.58
27643;BME280;15053;48.618;10.024;2023-03-13T02:39:12;93712.91;;;7.19;88.67
27643;BME280;15053;48.618;10.024;2023-03-13T02:41:41;93711.88;;;7.20;88.74
27643;BME280;15053;48.618;10.024;2023-03-13T02:44:08;93715.22;;;7.20;89.14
27643;BME280;15053;48.618;10.024;2023-03-13T02:46:46;93711.88;;;7.20;89.29
27643;BME280;15053;48.618;10.024;2023-03-13T02:49:20;93697.94;;;7.16;89.15
27643;BME280;15053;48.618;10.024;2023-03-13T02:51:47;93699.50;;;7.17;88.98
27643;BME280;15053;48.618;10.024;2023-03-13T02:54:21;93686.59;;;7.11;88.91
27643;BME280;15053;48.618;10.024;2023-03-13T02:56:52;93696.13;;;7.16;88.69
27643;BME280;15053;48.618;10.024;2023-03-13T02:59:19;93695.34;;;7.16;88.89
27643;BME280;15053;48.618;10.024;2023-03-13T03:01:47;93694.88;;;7.13;89.05
27643;BME280;15053;48.618;10.024;2023-03-13T03:04:22;93700.03;;;7.13;88.97
27643;BME280;15053;48.618;10.024;2023-03-13T03:06:53;93695.13;;;7.12;89.09
27643;BME280;15053;48.618;10.024;2023-03-13T03:09:21;93700.59;;;7.10;89.00
27643;BME280;15053;48.618;10.024;2023-03-13T03:11:51;93699.53;;;7.11;89.74
27643;BME280;15053;48.618;10.024;2023-03-13T03:14:18;93695.91;;;7.12;89.76
27643;BME280;15053;48.618;10.024;2023-03-13T03:16:46;93691.22;;;7.14;89.78
27643;BME280;15053;48.618;10.024;2023-03-13T03:19:13;93682.97;;;7.12;89.46
27643;BME280;15053;48.618;10.024;2023-03-13T03:21:39;93681.06;;;7.18;88.62
27643;BME280;15053;48.618;10.024;2023-03-13T03:24:06;93676.66;;;7.19;88.90
27643;BME280;15053;48.618;10.024;2023-03-13T03:26:34;93670.44;;;7.20;89.48
27643;BME280;15053;48.618;10.024;2023-03-13T03:29:06;93675.34;;;7.21;89.94
27643;BME280;15053;48.618;10.024;2023-03-13T03:31:37;93674.50;;;7.26;89.88
27643;BME280;15053;48.618;10.024;2023-03-13T03:34:03;93662.31;;;7.26;89.75
27643;BME280;15053;48.618;10.024;2023-03-13T03:36:30;93655.81;;;7.29;89.55
27643;BME280;15053;48.618;10.024;2023-03-13T03:38:59;93657.34;;;7.30;88.83
27643;BME280;15053;48.618;10.024;2023-03-13T03:41:26;93652.66;;;7.32;89.45
27643;BME280;15053;48.618;10.024;2023-03-13T03:43:53;93650.53;;;7.34;89.13
27643;BME280;15053;48.618;10.024;2023-03-13T03:46:23;93647.41;;;7.37;89.46
27643;BME280;15053;48.618;10.024;2023-03-13T03:48:50;93641.97;;;7.38;89.29
27643;BME280;15053;48.618;10.024;2023-03-13T03:51:17;93631.69;;;7.33;89.32
27643;BME280;15053;48.618;10.024;2023-03-13T03:53:45;93633.63;;;7.41;89.41
27643;BME280;15053;48.618;10.024;2023-03-13T03:56:12;93638.81;;;7.41;89.74
27643;BME280;15053;48.618;10.024;2023-03-13T03:58:44;93630.75;;;7.43;90.19
27643;BME280;15053;48.618;10.024;2023-03-13T04:01:34;93625.00;;;7.46;89.87
27643;BME280;15053;48.618;10.024;2023-03-13T04:04:01;93611.56;;;7.44;90.26
27643;BME280;15053;48.618;10.024;2023-03-13T04:06:29;93611.47;;;7.49;90.72
27643;BME280;15053;48.618;10.024;2023-03-13T04:08:55;93608.59;;;7.50;90.63
27643;BME280;15053;48.618;10.024;2023-03-13T04:11:24;93620.22;;;7.53;90.88
27643;BME280;15053;48.618;10.024;2023-03-13T04:13:53;93604.66;;;7.53;90.81
27643;BME280;15053;48.618;10.024;2023-03-13T04:16:21;93607.25;;;7.53;90.92
27643;BME280;15053;48.618;10.024;2023-03-13T04:18:47;93601.03;;;7.54;91.84
27643;BME280;15053;48.618;10.024;2023-03-13T04:21:15;93602.06;;;7.53;91.42
27643;BME280;15053;48.618;10.024;2023-03-13T04:23:49;93600.19;;;7.58;91.45
27643;BME280;15053;48.618;10.024;2023-03-13T04:26:16;93598.34;;;7.59;91.73
27643;BME280;15053;48.618;10.024;2023-03-13T04:28:44;93597.31;;;7.60;92.21
27643;BME280;15053;48.618;10.024;2023-03-13T04:31:15;93595.50;;;7.60;91.70
27643;BME280;15053;48.618;10.024;2023-03-13T04:34:07;93591.06;;;7.61;91.81
27643;BME280;15053;48.618;10.024;2023-03-13T04:36:52;93592.63;;;7.62;91.65
27643;BME280;15053;48.618;10.024;2023-03-13T04:39:39;93602.97;;;7.62;92.15
27643;BME280;15053;48.618;10.024;2023-03-13T04:42:37;93604.31;;;7.59;91.82
27643;BME280;15053;48.618;10.024;2023-03-13T04:45:21;93606.13;;;7.59;92.18
27643;BME280;15053;48.618;10.024;2023-03-13T04:47:47;93596.91;;;7.53;92.35
27643;BME280;15053;48.618;10.024;2023-03-13T04:50:34;93596.84;;;7.58;91.85
27643;BME280;15053;48.618;10.024;2023-03-13T04:53:12;93592.41;;;7.58;91.70
27643;BME280;15053;48.618;10.024;2023-03-13T04:55:51;93588.00;;;7.59;91.89
27643;BME280;15053;48.618;10.024;2023-03-13T04:58:35;93593.19;;;7.59;91.95
27643;BME280;15053;48.618;10.024;2023-03-13T05:01:09;93590.59;;;7.59;91.86
27643;BME280;15053;48.618;10.024;2023-03-13T05:04:08;93588.00;;;7.59;91.73
27643;BME280;15053;48.618;10.024;2023-03-13T05:06:58;93577.63;;;7.59;91.16
27643;BME280;15053;48.618;10.024;2023-03-13T05:09:53;93579.94;;;7.60;91.33
27643;BME280;15053;48.618;10.024;2023-03-13T05:12:38;93580.69;;;7.61;91.88
27643;BME280;15053;48.618;10.024;2023-03-13T05:15:12;93578.63;;;7.63;91.18
27643;BME280;15053;48.618;10.024;2023-03-13T05:17:53;93574.22;;;7.63;91.62
27643;BME280;15053;48.618;10.024;2023-03-13T05:20:44;93565.38;;;7.64;91.46
27643;BME280;15053;48.618;10.024;2023-03-13T05:23:33;93568.72;;;7.65;90.51
27643;BME280;15053;48.618;10.024;2023-03-13T05:26:18;93562.78;;;7.64;90.98
27643;BME280;15053;48.618;10.024;2023-03-13T05:29:07;93567.69;;;7.66;90.90
27643;BME280;15053;48.618;10.024;2023-03-13T05:31:55;93558.56;;;7.68;90.60
27643;BME280;15053;48.618;10.024;2023-03-13T05:34:40;93566.53;;;7.72;90.99
27643;BME280;15053;48.618;10.024;2023-03-13T05:37:27;93574.81;;;7.74;90.96
27643;BME280;15053;48.618;10.024;2023-03-13T05:40:11;93569.63;;;7.74;89.97
27643;BME280;15053;48.618;10.024;2023-03-13T05:43:01;93578.81;;;7.80;90.98
27643;BME280;15053;48.618;10.024;2023-03-13T05:45:47;93570.47;;;7.83;90.11
27643;BME280;15053;48.618;10.024;2023-03-13T05:48:34;93580.00;;;7.88;90.28
27643;BME280;15053;48.618;10.024;2023-03-13T05:51:19;93576.53;;;7.92;90.34
27643;BME280;15053;48.618;10.024;2023-03-13T05:53:55;93578.47;;;8.00;89.47
27643;BME280;15053;48.618;10.024;2023-03-13T05:56:46;93573.69;;;8.07;89.57
27643;BME280;15053;48.618;10.024;2023-03-13T05:59:33;93570.22;;;8.12;89.62
27643;BME280;15053;48.618;10.024;2023-03-13T06:02:26;93563.91;;;8.18;89.67
27643;BME280;15053;48.618;10.024;2023-03-13T06:04:54;93565.63;;;8.22;89.04
27643;BME280;15053;48.618;10.024;2023-03-13T06:07:20;93561.91;;;8.28;89.88
27643;BME280;15053;48.618;10.024;2023-03-13T06:09:47;93551.91;;;8.36;89.36
27643;BME280;15053;48.618;10.024;2023-03-13T06:12:13;93566.03;;;8.43;88.88
27643;BME280;15053;48.618;10.024;2023-03-13T06:14:40;93547.78;;;8.48;89.18
27643;BME280;15053;48.618;10.024;2023-03-13T06:17:28;93551.03;;;8.54;88.28
27643;BME280;15053;48.618;10.024;2023-03-13T06:19:55;93543.72;;;8.56;88.36
27643;BME280;15053;48.618;10.024;2023-03-13T06:22:21;93544.66;;;8.60;88.18
27643;BME280;15053;48.618;10.024;2023-03-13T06:24:48;93551.59;;;8.64;87.62
27643;BME280;15053;48.618;10.024;2023-03-13T06:27:15;93548.88;;;8.69;87.61
27643;BME280;15053;48.618;10.024;2023-03-13T06:29:42;93546.16;;;8.74;86.96
27643;BME280;15053;48.618;10.024;2023-03-13T06:32:08;93547.13;;;8.78;86.76
27643;BME280;15053;48.618;10.024;2023-03-13T06:34:35;93551.75;;;8.81;86.48
27643;BME280;15053;48.618;10.024;2023-03-13T06:37:01;93549.81;;;8.87;86.38
27643;BME280;15053;48.618;10.024;2023-03-13T06:39:29;93552.28;;;8.92;85.80
27643;BME280;15053;48.618;10.024;2023-03-13T06:41:55;93541.91;;;8.92;86.22
27643;BME280;15053;48.618;10.024;2023-03-13T06:44:22;93550.16;;;8.94;85.72
27643;BME280;15053;48.618;10.024;2023-03-13T06:46:48;93543.63;;;8.97;85.94
27643;BME280;15053;48.618;10.024;2023-03-13T06:49:15;93546.69;;;8.99;85.44
27643;BME280;15053;48.618;10.024;2023-03-13T06:51:41;93531.28;;;9.02;85.65
27643;BME280;15053;48.618;10.024;2023-03-13T06:54:07;93524.44;;;9.06;85.90
27643;BME280;15053;48.618;10.024;2023-03-13T06:56:34;93532.41;;;9.10;85.85
27643;BME280;15053;48.618;10.024;2023-03-13T06:59:00;93525.38;;;9.10;85.68
27643;BME280;15053;48.618;10.024;2023-03-13T07:01:27;93526.81;;;9.16;85.86
27643;BME280;15053;48.618;10.024;2023-03-13T07:03:54;93520.06;;;9.15;85.96
27643;BME280;15053;48.618;10.024;2023-03-13T07:06:20;93520.44;;;9.22;86.39
27643;BME280;15053;48.618;10.024;2023-03-13T07:08:47;93530.97;;;9.26;86.28
27643;BME280;15053;48.618;10.024;2023-03-13T07:11:14;93529.53;;;9.33;86.35
27643;BME280;15053;48.618;10.024;2023-03-13T07:13:41;93524.66;;;9.40;85.93
27643;BME280;15053;48.618;10.024;2023-03-13T07:16:10;93531.28;;;9.46;85.94
27643;BME280;15053;48.618;10.024;2023-03-13T07:18:38;93520.00;;;9.51;86.04
27643;BME280;15053;48.618;10.024;2023-03-13T07:21:08;93515.44;;;9.57;85.90
27643;BME280;15053;48.618;10.024;2023-03-13T07:23:35;93524.19;;;9.61;86.13
27643;BME280;15053;48.618;10.024;2023-03-13T07:26:07;93514.44;;;9.66;85.71
27643;BME280;15053;48.618;10.024;2023-03-13T07:28:35;93513.53;;;9.71;85.56
27643;BME280;15053;48.618;10.024;2023-03-13T07:31:17;93519.53;;;9.80;85.17
27643;BME280;15053;48.618;10.024;2023-03-13T07:33:44;93513.16;;;9.86;84.94
27643;BME280;15053;48.618;10.024;2023-03-13T07:36:13;93518.34;;;9.94;84.92
27643;BME280;15053;48.618;10.024;2023-03-13T07:38:40;93539.06;;;9.99;84.84
27643;BME280;15053;48.618;10.024;2023-03-13T07:41:11;93542.88;;;10.02;84.58
27643;BME280;15053;48.618;10.024;2023-03-13T07:43:38;93533.25;;;10.02;84.50
27643;BME280;15053;48.618;10.024;2023-03-13T07:46:06;93542.28;;;10.05;84.17
27643;BME280;15053;48.618;10.024;2023-03-13T07:48:35;93549.00;;;10.06;84.39
27643;BME280;15053;48.618;10.024;2023-03-13T07:51:04;93544.75;;;10.10;83.71
27643;BME280;15053;48.618;10.024;2023-03-13T07:53:31;93535.88;;;10.11;83.82
27643;BME280;15053;48.618;10.024;2023-03-13T07:56:06;93537.91;;;10.14;83.77
27643;BME280;15053;48.618;10.024;2023-03-13T07:58:34;93532.69;;;10.14;83.64
27643;BME280;15053;48.618;10.024;2023-03-13T08:01:11;93542.81;;;10.16;83.73
27643;BME280;15053;48.618;10.024;2023-03-13T08:03:38;93530.25;;;10.18;84.31
27643;BME280;15053;48.618;10.024;2023-03-13T08:06:07;93531.50;;;10.20;84.53
27643;BME280;15053;48.618;10.024;2023-03-13T08:08:35;93538.09;;;10.26;84.67
27643;BME280;15053;48.618;10.024;2023-03-13T08:11:03;93535.34;;;10.31;84.69
27643;BME280;15053;48.618;10.024;2023-03-13T08:13:32;93532.59;;;10.36;84.77
27643;BME280;15053;48.618;10.024;2023-03-13T08:16:06;93521.75;;;10.43;84.94
27643;BME280;15053;48.618;10.024;2023-03-13T08:18:34;93524.53;;;10.46;84.78
27643;BME280;15053;48.618;10.024;2023-03-13T08:21:11;93522.25;;;10.53;84.71
27643;BME280;15053;48.618;10.024;2023-03-13T08:23:38;93507.56;;;10.57;84.71
27643;BME280;15053;48.618;10.024;2023-03-13T08:26:14;93517.84;;;10.71;84.91
27643;BME280;15053;48.618;10.024;2023-03-13T08:28:42;93506.19;;;10.77;85.13
27643;BME280;15053;48.618;10.024;2023-03-13T08:31:13;93499.31;;;10.90;85.36
27643;BME280;15053;48.618;10.024;2023-03-13T08:33:41;93491.63;;;11.02;85.20
27643;BME280;15053;48.618;10.024;2023-03-13T08:36:25;93490.72;;;11.15;85.16
27643;BME280;15053;48.618;10.024;2023-03-13T08:38:53;93491.44;;;11.24;85.17
27643;BME280;15053;48.618;10.024;2023-03-13T08:41:23;93503.53;;;11.37;85.07
27643;BME280;15053;48.618;10.024;2023-03-13T08:43:56;93489.88;;;11.49;84.99
27643;BME280;15053;48.618;10.024;2023-03-13T08:46:23;93494.28;;;11.65;84.60
27643;BME280;15053;48.618;10.024;2023-03-13T08:48:52;93491.81;;;11.77;84.22
27643;BME280;15053;48.618;10.024;2023-03-13T08:51:21;93480.09;;;11.92;84.03
27643;BME280;15053;48.618;10.024;2023-03-13T08:53:48;93473.91;;;12.05;82.77
27643;BME280;15053;48.618;10.024;2023-03-13T08:56:18;93480.59;;;12.15;82.43
27643;BME280;15053;48.618;10.024;2023-03-13T08:58:53;93468.44;;;12.27;82.26
27643;BME280;15053;48.618;10.024;2023-03-13T09:01:21;93486.00;;;12.39;81.67
27643;BME280;15053;48.618;10.024;2023-03-13T09:03:48;93475.97;;;12.50;80.19
27643;BME280;15053;48.618;10.024;2023-03-13T09:06:15;93485.28;;;12.59;80.00
27643;BME280;15053;48.618;10.024;2023-03-13T09:08:42;93485.03;;;12.73;80.02
27643;BME280;15053;48.618;10.024;2023-03-13T09:11:15;93490.81;;;12.78;80.09
27643;BME280;15053;48.618;10.024;2023-03-13T09:13:44;93502.63;;;12.84;80.02
27643;BME280;15053;48.618;10.024;2023-03-13T09:16:13;93478.47;;;12.87;77.87
27643;BME280;15053;48.618;10.024;2023-03-13T09:18:41;93460.63;;;12.89;78.30
27643;BME280;15053;48.618;10.024;2023-03-13T09:21:19;93452.19;;;13.05;77.72
27643;BME280;15053;48.618;10.024;2023-03-13T09:23:47;93450.50;;;13.09;77.54
27643;BME280;15053;48.618;10.024;2023-03-13T09:26:13;93452.50;;;13.24;77.43
27643;BME280;15053;48.618;10.024;2023-03-13T09:28:40;93447.06;;;13.29;76.33
27643;BME280;15053;48.618;10.024;2023-03-13T09:31:12;93462.47;;;13.42;76.29
27643;BME280;15053;48.618;10.024;2023-03-13T09:33:39;93457.81;;;13.48;75.75
27643;BME280;15053;48.618;10.024;2023-03-13T09:36:06;93469.78;;;13.49;75.54
27643;BME280;15053;48.618;10.024;2023-03-13T09:38:34;93471.84;;;13.43;74.49
27643;BME280;15053;48.618;10.024;2023-03-13T09:41:04;93468.66;;;13.38;74.51
27643;BME280;15053;48.618;10.024;2023-03-13T09:43:46;93465.59;;;13.36;75.05
27643;BME280;15053;48.618;10.024;2023-03-13T09:46:40;93462.13;;;13.32;74.47
27643;BME280;15053;48.618;10.024;2023-03-13T09:51:51;93465.25;;;13.25;74.64
27643;BME280;15053;48.618;10.024;2023-03-13T09:54:25;93481.00;;;13.17;73.92
27643;BME280;15053;48.618;10.024;2023-03-13T09:56:57;93474.19;;;13.03;73.93
27643;BME280;15053;48.618;10.024;2023-03-13T09:59:36;93471.84;;;13.11;74.04
27643;BME280;15053;48.618;10.024;2023-03-13T10:04:52;93450.69;;;13.36;74.39
27643;BME280;15053;48.618;10.024;2023-03-13T10:07:21;93451.72;;;13.68;74.13
27643;BME280;15053;48.618;10.024;2023-03-13T10:09:47;93462.25;;;13.92;73.64
27643;BME280;15053;48.618;10.024;2023-03-13T10:12:19;93461.16;;;14.05;73.81
27643;BME280;15053;48.618;10.024;2023-03-13T10:14:59;93458.09;;;14.15;73.91
27643;BME280;15053;48.618;10.024;2023-03-13T10:17:36;93459.41;;;14.22;72.91
27643;BME280;15053;48.618;10.024;2023-03-13T10:20:28;93452.31;;;14.34;72.76
27643;BME280;15053;48.618;10.024;2023-03-13T10:23:13;93442.59;;;14.47;72.54
27643;BME280;15053;48.618;10.024;2023-03-13T10:25:41;93445.72;;;14.64;72.08
27643;BME280;15053;48.618;10.024;2023-03-13T10:28:13;93444.94;;;14.76;72.07
27643;BME280;15053;48.618;10.024;2023-03-13T10:30:46;93463.91;;;14.85;71.05
27643;BME280;15053;48.618;10.024;2023-03-13T10:33:21;93443.88;;;15.05;69.75
27643;BME280;15053;48.618;10.024;2023-03-13T10:36:05;93445.19;;;15.26;68.33
27643;BME280;15053;48.618;10.024;2023-03-13T10:38:52;93441.66;;;15.34;68.14
27643;BME280;15053;48.618;10.024;2023-03-13T10:41:28;93461.78;;;15.30;65.23
27643;BME280;15053;48.618;10.024;2023-03-13T10:44:04;93448.06;;;15.21;65.74
27643;BME280;15053;48.618;10.024;2023-03-13T10:46:34;93460.72;;;15.19;65.70
27643;BME280;15053;48.618;10.024;2023-03-13T10:49:16;93442.81;;;15.21;65.84
27643;BME280;15053;48.618;10.024;2023-03-13T10:51:54;93440.72;;;15.43;65.18
27643;BME280;15053;48.618;10.024;2023-03-13T10:54:26;93443.56;;;15.50;64.17
27643;BME280;15053;48.618;10.024;2023-03-13T10:57:24;93433.53;;;15.40;64.65
27643;BME280;15053;48.618;10.024;2023-03-13T10:59:52;93436.16;;;15.40;64.96
27643;BME280;15053;48.618;10.024;2023-03-13T11:02:36;93429.19;;;15.31;64.34
27643;BME280;15053;48.618;10.024;2023-03-13T11:07:51;93415.88;;;15.52;64.15
27643;BME280;15053;48.618;10.024;2023-03-13T11:10:26;93409.78;;;15.95;64.22
27643;BME280;15053;48.618;10.024;2023-03-13T11:12:57;93412.88;;;16.32;60.60
27643;BME280;15053;48.618;10.024;2023-03-13T11:15:34;93411.91;;;16.56;60.76
27643;BME280;15053;48.618;10.024;2023-03-13T11:18:17;93412.41;;;16.80;60.23
27643;BME280;15053;48.618;10.024;2023-03-13T11:20:48;93401.50;;;16.78;59.83
27643;BME280;15053;48.618;10.024;2023-03-13T11:23:20;93399.19;;;16.77;59.98
27643;BME280;15053;48.618;10.024;2023-03-13T11:26:00;93397.66;;;16.76;60.34
27643;BME280;15053;48.618;10.024;2023-03-13T11:31:50;93385.19;;;16.53;57.49
27643;BME280;15053;48.618;10.024;2023-03-13T11:34:28;93388.00;;;16.45;58.53
27643;BME280;15053;48.618;10.024;2023-03-13T11:37:00;93383.28;;;16.35;58.72
27643;BME280;15053;48.618;10.024;2023-03-13T11:44:39;93378.59;;;16.09;59.75
27643;BME280;15053;48.618;10.024;2023-03-13T11:49:52;93371.63;;;16.17;59.30
27643;BME280;15053;48.618;10.024;2023-03-13T11:52:31;93369.13;;;16.39;59.03
27643;BME280;15053;48.618;10.024;2023-03-13T12:03:35;93323.09;;;17.75;55.56
27643;BME280;15053;48.618;10.024;2023-03-13T12:06:05;93343.34;;;17.93;53.66
27643;BME280;15053;48.618;10.024;2023-03-13T12:08:57;93320.97;;;17.84;53.58
27643;BME280;15053;48.618;10.024;2023-03-13T12:11:31;93314.81;;;17.99;53.69
27643;BME280;15053;48.618;10.024;2023-03-13T12:14:04;93311.94;;;18.37;53.69
27643;BME280;15053;48.618;10.024;2023-03-13T12:16:42;93307.09;;;18.72;52.94
27643;BME280;15053;48.618;10.024;2023-03-13T12:19:15;93294.59;;;19.03;51.88
27643;BME280;15053;48.618;10.024;2023-03-13T12:21:47;93283.03;;;19.14;50.62
27643;BME280;15053;48.618;10.024;2023-03-13T12:24:24;93271.75;;;19.21;49.51
27643;BME280;15053;48.618;10.024;2023-03-13T12:27:13;93259.69;;;19.20;49.46
27643;BME280;15053;48.618;10.024;2023-03-13T12:30:02;93267.63;;;19.20;49.65
27643;BME280;15053;48.618;10.024;2023-03-13T12:32:37;93259.75;;;19.27;49.86
27643;BME280;15053;48.618;10.024;2023-03-13T12:40:29;93227.22;;;19.63;49.01
27643;BME280;15053;48.618;10.024;2023-03-13T12:43:27;93217.88;;;19.83;48.24
27643;BME280;15053;48.618;10.024;2023-03-13T12:56:38;93195.91;;;20.55;47.75
27643;BME280;15053;48.618;10.024;2023-03-13T12:59:20;93176.66;;;20.76;46.46
27643;BME280;15053;48.618;10.024;2023-03-13T13:01:51;93172.91;;;21.01;46.11
27643;BME280;15053;48.618;10.024;2023-03-13T13:04:22;93172.19;;;21.22;46.08
27643;BME280;15053;48.618;10.024;2023-03-13T13:06:56;93168.38;;;21.44;45.07
27643;BME280;15053;48.618;10.024;2023-03-13T13:09:28;93169.16;;;21.34;43.88
27643;BME280;15053;48.618;10.024;2023-03-13T13:11:57;93164.59;;;21.21;44.08
27643;BME280;15053;48.618;10.024;2023-03-13T13:17:01;93145.28;;;21.02;43.81
27643;BME280;15053;48.618;10.024;2023-03-13T13:32:48;93095.00;;;20.74;44.87
27643;BME280;15053;48.618;10.024;2023-03-13T13:35:25;93092.38;;;20.60;44.71
27643;BME280;15053;48.618;10.024;2023-03-13T13:43:38;93077.25;;;20.82;46.00
27643;BME280;15053;48.618;10.024;2023-03-13T13:46:15;93077.19;;;20.96;46.47
27643;BME280;15053;48.618;10.024;2023-03-13T13:48:45;93071.56;;;21.15;46.42
27643;BME280;15053;48.618;10.024;2023-03-13T13:53:55;93057.56;;;21.11;46.14
27643;BME280;15053;48.618;10.024;2023-03-13T13:59:03;93069.25;;;20.96;46.47
27643;BME280;15053;48.618;10.024;2023-03-13T14:01:31;93070.81;;;20.79;46.88
27643;BME280;15053;48.618;10.024;2023-03-13T14:04:13;93053.03;;;20.55;47.63
27643;BME280;15053;48.618;10.024;2023-03-13T14:06:44;93049.25;;;20.42;47.44
27643;BME280;15053;48.618;10.024;2023-03-13T14:11:58;93036.00;;;20.38;47.58
27643;BME280;15053;48.618;10.024;2023-03-13T14:14:24;93029.56;;;20.15;48.11
27643;BME280;15053;48.618;10.024;2023-03-13T14:16:53;93030.69;;;20.14;48.42
27643;BME280;15053;48.618;10.024;2023-03-13T14:19:26;93020.47;;;20.01;48.34
27643;BME280;15053;48.618;10.024;2023-03-13T14:22:01;93024.56;;;19.71;49.36
27643;BME280;15053;48.618;10.024;2023-03-13T14:24:29;93023.75;;;19.56;50.26
27643;BME280;15053;48.618;10.024;2023-03-13T14:26:55;93016.22;;;19.62;50.31
27643;BME280;15053;48.618;10.024;2023-03-13T14:29:23;93008.00;;;19.98;48.75
27643;BME280;15053;48.618;10.024;2023-03-13T14:31:53;93011.09;;;20.36;47.35
27643;BME280;15053;48.618;10.024;2023-03-13T14:34:20;92999.00;;;20.42;47.24
27643;BME280;15053;48.618;10.024;2023-03-13T14:36:56;92997.47;;;20.30;47.18
27643;BME280;15053;48.618;10.024;2023-03-13T14:39:44;92990.63;;;20.08;47.80